Time;durP1;ratioP1;P1;durP2;ratioP2;P2;SDS_P1;SDS_P2;PMS_P1;PMS_P2;Temp;Humidity;BMP_temperature;BMP_pressure;BME280_temperature;BME280_humidity;BME280_pressure;Samples;Min_cycle;Max_cycle;Signal;HPM_P1;HPM_P2
2022/06/02 00:01:33;;;;;;;22.67;19.85;;;11.40;76.80;;;;;;5000805;28;20489;-70
2022/06/02 00:04:34;;;;;;;20.98;17.73;;;11.40;76.50;;;;;;5000449;28;20410;-69
2022/06/02 00:07:19;;;;;;;23.17;19.30;;;11.30;76.60;;;;;;5032424;28;20037;-70
2022/06/02 00:10:00;;;;;;;;;;;11.30;76.90;;;;;;5002270;28;20121;-70
2022/06/02 00:12:35;;;;;;;22.02;18.55;;;11.20;77.00;;;;;;5005344;28;20372;-70
2022/06/02 00:15:36;;;;;;;20.52;18.25;;;11.20;77.20;;;;;;4999753;28;20048;-70
2022/06/02 00:18:20;;;;;;;21.02;18.05;;;11.10;77.30;;;;;;4961740;28;20073;-71
2022/06/02 00:20:57;;;;;;;21.05;18.63;;;11.10;77.30;;;;;;4992811;28;20038;-70
2022/06/02 00:23:41;;;;;;;21.55;19.35;;;11.10;77.10;;;;;;5006871;28;20041;-72
2022/06/02 00:26:39;;;;;;;22.15;19.83;;;11.10;77.10;;;;;;5003372;28;20123;-71
2022/06/02 00:29:39;;;;;;;21.50;19.20;;;11.10;77.40;;;;;;4999588;28;20069;-69
2022/06/02 00:32:31;;;;;;;22.13;19.75;;;11.00;77.70;;;;;;4998290;28;20144;-70
2022/06/02 00:35:29;;;;;;;22.20;19.85;;;10.90;77.90;;;;;;5002310;28;20495;-70
2022/06/02 00:38:04;;;;;;;23.17;20.45;;;10.90;78.10;;;;;;4999518;28;20046;-72
2022/06/02 00:40:32;;;;;;;23.00;20.17;;;10.90;78.40;;;;;;4999078;28;20041;-70
2022/06/02 00:43:01;;;;;;;23.98;21.33;;;10.90;78.60;;;;;;5000520;28;20512;-70
2022/06/02 00:45:26;;;;;;;24.25;21.75;;;10.90;78.70;;;;;;4999973;28;20125;-70
2022/06/02 00:48:06;;;;;;;25.15;22.20;;;10.80;78.80;;;;;;4991144;28;20038;-70
2022/06/02 00:50:59;;;;;;;23.90;21.13;;;10.90;78.60;;;;;;4998631;28;20389;-70
2022/06/02 01:00:08;;;;;;;24.83;22.23;;;10.60;78.40;;;;;;4994575;28;19924;-70
2022/06/02 01:02:54;;;;;;;28.45;24.75;;;10.60;78.60;;;;;;5001810;28;20034;-70
2022/06/02 01:05:38;;;;;;;24.48;21.90;;;10.60;78.60;;;;;;4996180;28;20485;-70
2022/06/02 01:08:26;;;;;;;25.88;23.25;;;10.50;78.60;;;;;;5008427;28;20052;-70
2022/06/02 01:11:17;;;;;;;26.15;23.42;;;10.50;78.80;;;;;;4994833;28;20065;-70
2022/06/02 01:13:59;;;;;;;25.15;22.55;;;10.50;78.80;;;;;;4979132;28;20030;-70
2022/06/02 01:16:44;;;;;;;26.42;23.73;;;10.40;78.80;;;;;;4999451;28;20071;-69
2022/06/02 01:19:10;;;;;;;;;;;10.40;79.00;;;;;;4996611;28;20057;-70
2022/06/02 01:21:52;;;;;;;26.02;23.23;;;10.40;79.10;;;;;;4997220;28;20388;-71
2022/06/02 01:24:56;;;;;;;24.27;21.77;;;10.40;78.80;;;;;;4998238;28;20049;-71
2022/06/02 01:27:56;;;;;;;25.67;23.00;;;10.30;78.80;;;;;;4997838;28;20045;-70
2022/06/02 01:30:52;;;;;;;26.40;23.70;;;10.20;78.90;;;;;;4990073;28;20512;-71
2022/06/02 01:33:28;;;;;;;26.70;23.90;;;10.20;79.00;;;;;;5000373;28;22601;-70
2022/06/02 01:36:04;;;;;;;26.50;23.75;;;10.10;79.00;;;;;;5005146;28;20044;-71
2022/06/02 01:38:49;;;;;;;25.27;22.50;;;10.10;79.20;;;;;;4999019;28;20088;-71
2022/06/02 01:41:15;;;;;;;27.40;24.48;;;10.10;79.30;;;;;;5005673;28;20045;-70
2022/06/02 01:44:02;;;;;;;26.60;23.63;;;10.10;79.50;;;;;;5009027;28;20042;-71
2022/06/02 01:46:50;;;;;;;27.35;24.52;;;10.10;79.40;;;;;;4999063;28;20030;-71
2022/06/02 01:49:39;;;;;;;25.45;22.88;;;10.00;79.40;;;;;;4998144;28;20037;-70
2022/06/02 01:52:30;;;;;;;27.13;24.33;;;10.00;79.30;;;;;;4999402;28;20121;-70
2022/06/02 01:55:19;;;;;;;27.42;24.52;;;10.00;79.20;;;;;;5001653;28;20418;-70
2022/06/02 01:58:07;;;;;;;28.02;25.02;;;9.90;79.20;;;;;;5005046;28;20077;-70
2022/06/02 02:00:35;;;;;;;27.98;24.58;;;9.90;79.30;;;;;;5003572;28;20084;-71
2022/06/02 02:03:31;;;;;;;28.10;25.10;;;9.90;79.40;;;;;;5004189;28;20034;-70
2022/06/02 02:06:18;;;;;;;28.13;24.85;;;9.80;79.30;;;;;;5004611;28;20575;-73
2022/06/02 02:09:11;;;;;;;27.42;24.63;;;9.70;79.20;;;;;;5005924;28;20037;-71
2022/06/02 02:11:50;;;;;;;28.45;25.42;;;9.70;79.40;;;;;;4998396;28;20489;-71
2022/06/02 02:14:34;;;;;;;30.08;26.85;;;9.60;79.60;;;;;;5001768;28;20401;-70
2022/06/02 02:17:27;;;;;;;33.95;29.35;;;9.60;79.90;;;;;;5002529;28;20120;-72
2022/06/02 02:19:59;;;;;;;32.90;29.50;;;9.60;80.40;;;;;;4998846;28;20034;-70
2022/06/02 02:22:33;;;;;;;32.17;28.80;;;9.60;80.60;;;;;;5002185;28;20128;-70
2022/06/02 02:25:02;;;;;;;31.65;28.38;;;9.60;80.90;;;;;;5001867;28;20667;-71
2022/06/02 02:28:04;;;;;;;33.58;29.98;;;9.60;81.00;;;;;;5001212;28;20046;-71
2022/06/02 02:30:45;;;;;;;30.60;27.30;;;9.50;81.20;;;;;;5001480;28;20401;-70
2022/06/02 02:33:36;;;;;;;29.92;26.83;;;9.50;81.00;;;;;;4999364;28;20140;-71
2022/06/02 02:36:27;;;;;;;31.25;27.85;;;9.50;80.70;;;;;;4995876;28;20522;-71
2022/06/02 02:39:50;;;;;;;30.67;27.40;;;9.50;80.80;;;;;;4995915;28;20046;-70
2022/06/02 02:42:53;;;;;;;30.15;27.00;;;9.50;80.60;;;;;;4961020;28;20264;-70
2022/06/02 02:45:25;;;;;;;31.67;28.38;;;9.40;80.50;;;;;;4964987;28;20490;-72
2022/06/02 02:47:53;;;;;;;32.03;28.63;;;9.30;80.60;;;;;;4995914;28;20066;-70
2022/06/02 02:50:26;;;;;;;30.95;27.65;;;9.40;80.70;;;;;;5001211;28;20053;-70
2022/06/02 02:52:59;;;;;;;29.75;26.58;;;9.30;80.50;;;;;;5002798;28;20085;-70
2022/06/02 02:55:50;;;;;;;31.65;28.13;;;9.30;80.60;;;;;;5000389;28;20045;-71
2022/06/02 02:58:44;;;;;;;32.75;29.25;;;9.30;80.60;;;;;;5003666;28;20034;-71
2022/06/02 03:01:40;;;;;;;32.53;28.58;;;9.20;80.60;;;;;;5001530;28;20493;-70
2022/06/02 03:04:21;;;;;;;34.92;30.38;;;9.20;80.80;;;;;;4995057;28;20034;-70
2022/06/02 03:06:54;;;;;;;36.28;32.47;;;9.20;81.10;;;;;;4999900;28;20038;-69
2022/06/02 03:09:38;;;;;;;35.53;29.85;;;9.10;81.20;;;;;;5001150;28;20038;-70
2022/06/02 03:12:08;;;;;;;34.47;30.00;;;9.20;81.10;;;;;;4999112;28;20064;-70
2022/06/02 03:14:46;;;;;;;33.97;30.10;;;9.10;80.80;;;;;;4996007;28;20385;-69
2022/06/02 03:17:33;;;;;;;32.28;28.80;;;9.10;81.00;;;;;;4995457;28;20036;-69
2022/06/02 03:20:15;;;;;;;32.22;28.73;;;9.10;81.40;;;;;;4998278;28;20564;-70
2022/06/02 03:22:40;;;;;;;33.45;29.85;;;9.10;81.50;;;;;;4998442;28;20046;-70
2022/06/02 03:25:27;;;;;;;32.83;29.33;;;9.10;81.60;;;;;;4955865;28;1223651;-70
2022/06/02 03:28:08;;;;;;;32.13;28.63;;;9.10;81.70;;;;;;5001079;28;20045;-69
2022/06/02 03:30:40;;;;;;;33.17;29.52;;;9.10;81.60;;;;;;4999254;28;20030;-69
2022/06/02 03:33:17;;;;;;;36.50;31.60;;;9.10;81.80;;;;;;5001086;28;20026;-70
2022/06/02 03:36:01;;;;;;;34.13;28.95;;;9.10;81.90;;;;;;4999306;28;20045;-70
2022/06/02 03:38:42;;;;;;;35.45;31.10;;;9.00;82.00;;;;;;4996646;28;20151;-70
2022/06/02 03:41:13;;;;;;;34.35;29.70;;;9.10;81.90;;;;;;4999725;28;20038;-69
2022/06/02 03:44:00;;;;;;;34.90;30.75;;;9.00;82.00;;;;;;5001902;28;20034;-71
2022/06/02 03:46:32;;;;;;;32.80;28.95;;;9.10;82.10;;;;;;5000908;28;20088;-69
2022/06/02 03:49:23;;;;;;;34.40;29.67;;;9.00;82.00;;;;;;5000576;28;20537;-71
2022/06/02 03:52:26;;;;;;;33.92;30.23;;;9.10;81.90;;;;;;4999079;28;20082;-70
2022/06/02 03:55:02;;;;;;;35.05;29.73;;;9.10;81.50;;;;;;5001298;28;20569;-71
2022/06/02 03:57:45;;;;;;;35.17;30.25;;;9.10;81.30;;;;;;4981385;28;20477;-70
2022/06/02 04:00:26;;;;;;;33.72;30.08;;;9.10;81.40;;;;;;5000977;28;20493;-70
2022/06/02 04:03:06;;;;;;;36.70;32.15;;;9.10;81.70;;;;;;5000037;28;20556;-70
2022/06/02 04:05:35;;;;;;;34.88;30.33;;;9.10;81.80;;;;;;5001315;28;20516;-70
2022/06/02 04:08:19;;;;;;;35.17;29.75;;;9.10;81.80;;;;;;5000189;28;20059;-71
2022/06/02 04:11:18;;;;;;;31.83;27.83;;;9.10;81.60;;;;;;5000554;28;20032;-71
2022/06/02 04:13:59;;;;;;;33.60;29.90;;;9.20;81.60;;;;;;5011367;28;20026;-70
2022/06/02 04:17:00;;;;;;;36.17;30.92;;;9.30;81.60;;;;;;4997209;28;20042;-72
2022/06/02 04:22:42;;;;;;;36.00;32.10;;;9.40;82.00;;;;;;4996691;28;20049;-72
2022/06/02 04:25:32;;;;;;;38.60;32.78;;;9.40;82.20;;;;;;4993037;28;20054;-72
2022/06/02 04:28:09;;;;;;;35.55;31.75;;;9.40;82.30;;;;;;4989426;28;20039;-70
2022/06/02 04:30:55;;;;;;;36.78;32.65;;;9.50;82.40;;;;;;4992971;28;20117;-70
2022/06/02 04:33:36;;;;;;;35.75;31.88;;;9.60;82.30;;;;;;4987102;28;20137;-70
2022/06/02 04:36:57;;;;;;;37.35;33.30;;;9.70;82.30;;;;;;5025538;28;20084;-71
2022/06/02 04:39:31;;;;;;;35.13;31.35;;;9.80;82.50;;;;;;4996758;28;20088;-71
2022/06/02 04:42:41;;;;;;;37.22;33.05;;;9.90;82.40;;;;;;4998464;28;20049;-72
2022/06/02 04:45:18;;;;;;;38.13;31.42;;;10.00;82.30;;;;;;4989198;28;20041;-69
2022/06/02 04:48:10;;;;;;;34.92;31.13;;;10.10;82.20;;;;;;4989214;28;20474;-70
2022/06/02 04:50:55;;;;;;;36.75;29.63;;;10.10;81.90;;;;;;5024276;28;20532;-71
2022/06/02 04:53:43;;;;;;;35.80;31.02;;;10.20;81.70;;;;;;4986116;28;20374;-70
2022/06/02 04:56:32;;;;;;;33.35;29.55;;;10.30;81.60;;;;;;4993371;28;20081;-70
2022/06/02 04:59:16;;;;;;;37.25;30.45;;;10.40;81.30;;;;;;4993407;28;20152;-70
2022/06/02 05:02:01;;;;;;;33.80;30.17;;;10.50;81.20;;;;;;4988953;28;20069;-70
2022/06/02 05:04:51;;;;;;;33.28;29.48;;;10.60;80.80;;;;;;4999739;28;20038;-70
2022/06/02 05:07:38;;;;;;;32.70;29.17;;;10.80;80.40;;;;;;5000660;28;20607;-71
2022/06/02 05:10:32;;;;;;;32.47;29.05;;;10.90;80.10;;;;;;4992406;28;20479;-72
2022/06/02 05:13:04;;;;;;;31.77;28.48;;;11.10;80.20;;;;;;4988135;28;20232;-73
2022/06/02 05:15:58;;;;;;;28.85;25.42;;;12.30;78.90;;;;;;4988395;28;20074;-71
2022/06/02 05:18:45;;;;;;;28.80;25.77;;;13.80;74.30;;;;;;4979925;28;20084;-70
2022/06/02 05:21:29;;;;;;;24.73;22.15;;;15.10;69.80;;;;;;4997698;28;20657;-71
2022/06/02 05:24:13;;;;;;;24.88;22.38;;;16.60;65.20;;;;;;4993504;28;20434;-72
2022/06/02 05:26:48;;;;;;;24.45;21.85;;;17.50;60.30;;;;;;4998354;28;20505;-72
2022/06/02 05:30:08;;;;;;;24.63;22.05;;;18.30;57.80;;;;;;4996227;28;20045;-71
2022/06/02 05:32:42;;;;;;;22.63;20.15;;;18.60;55.70;;;;;;4938226;28;20043;-70
2022/06/02 05:35:08;;;;;;;26.10;23.30;;;19.30;54.40;;;;;;4988848;28;20042;-71
2022/06/02 05:38:01;;;;;;;26.52;23.83;;;19.50;52.20;;;;;;4996139;28;20364;-72
2022/06/02 05:40:38;;;;;;;25.55;22.95;;;19.40;53.20;;;;;;5010920;28;20089;-71
2022/06/02 05:43:13;;;;;;;24.13;21.55;;;19.50;53.90;;;;;;4989390;28;20041;-70
2022/06/02 05:45:47;;;;;;;;;;;19.70;53.60;;;;;;4994544;28;20052;-71
2022/06/02 05:48:20;;;;;;;28.48;23.50;;;19.90;52.50;;;;;;4995432;28;20584;-71
2022/06/02 05:51:01;;;;;;;25.98;23.25;;;19.90;51.70;;;;;;4994931;28;20395;-72
2022/06/02 05:53:38;;;;;;;26.13;23.42;;;19.20;53.10;;;;;;4990719;28;20068;-71
2022/06/02 05:56:31;;;;;;;26.75;24.05;;;18.20;56.60;;;;;;4987804;28;20282;-71
2022/06/02 05:59:09;;;;;;;26.23;23.20;;;17.60;59.10;;;;;;4992248;28;20034;-72
2022/06/02 06:01:59;;;;;;;26.02;23.33;;;17.00;60.70;;;;;;4991763;28;20042;-71
2022/06/02 06:05:06;;;;;;;24.45;21.88;;;16.60;62.20;;;;;;4992455;28;20654;-70
2022/06/02 06:08:02;;;;;;;25.42;22.75;;;16.20;64.20;;;;;;4979616;28;20477;-71
2022/06/02 06:10:52;;;;;;;23.52;21.13;;;15.90;65.90;;;;;;4997064;28;20433;-70
2022/06/02 06:13:39;;;;;;;22.30;19.92;;;15.70;66.30;;;;;;4994979;28;20557;-71
2022/06/02 06:16:32;;;;;;;22.67;19.38;;;15.60;67.10;;;;;;4996704;28;20535;-74
2022/06/02 06:19:32;;;;;;;22.48;20.00;;;15.70;67.80;;;;;;5002944;28;20057;-74
2022/06/02 06:22:28;;;;;;;20.95;18.73;;;15.80;66.70;;;;;;5001111;28;20085;-74
2022/06/02 06:25:06;;;;;;;21.52;19.33;;;15.70;67.70;;;;;;5002328;28;20058;-73
2022/06/02 06:27:34;;;;;;;24.02;21.60;;;15.80;67.50;;;;;;4992554;28;20049;-73
2022/06/02 06:30:23;;;;;;;21.92;19.63;;;15.70;66.70;;;;;;4993679;28;20254;-72
2022/06/02 06:32:54;;;;;;;20.05;17.95;;;15.70;67.90;;;;;;4994517;28;20389;-73
2022/06/02 06:35:41;;;;;;;20.80;18.70;;;15.80;67.40;;;;;;4996030;28;20054;-74
2022/06/02 06:38:19;;;;;;;19.85;17.85;;;15.60;67.40;;;;;;4992921;28;20042;-73
2022/06/02 06:40:57;;;;;;;19.33;17.27;;;15.40;68.90;;;;;;4993362;28;20030;-73
2022/06/02 06:44:01;;;;;;;18.30;16.35;;;15.30;68.80;;;;;;5006032;28;20117;-74
2022/06/02 06:46:36;;;;;;;20.17;15.73;;;15.50;69.40;;;;;;4970974;28;20076;-74
2022/06/02 06:49:39;;;;;;;18.55;16.42;;;15.40;69.10;;;;;;4999127;28;20856;-76
2022/06/02 06:52:20;;;;;;;16.15;14.50;;;15.30;69.30;;;;;;5001441;28;20658;-76
2022/06/02 06:54:57;;;;;;;16.55;13.40;;;15.40;68.70;;;;;;5002276;28;20073;-77
2022/06/02 06:57:50;;;;;;;14.40;12.80;;;15.80;68.00;;;;;;5014168;28;20038;-75
2022/06/02 07:00:22;;;;;;;16.75;14.40;;;16.10;65.70;;;;;;5001096;28;20034;-74
2022/06/02 07:02:47;;;;;;;14.55;13.00;;;16.10;64.40;;;;;;5006477;28;20041;-74
2022/06/02 07:05:35;;;;;;;15.23;13.30;;;15.30;67.20;;;;;;4996895;28;20433;-75
2022/06/02 07:08:12;;;;;;;15.05;12.52;;;15.50;68.30;;;;;;4995891;28;20104;-75
2022/06/02 07:10:44;;;;;;;17.08;13.15;;;15.90;66.20;;;;;;5007932;28;20045;-73
2022/06/02 07:13:28;;;;;;;17.67;14.27;;;16.10;64.90;;;;;;5000824;28;20486;-74
2022/06/02 07:16:34;;;;;;;14.48;12.90;;;16.40;64.60;;;;;;5000794;28;20050;-74
2022/06/02 07:19:23;;;;;;;16.38;14.77;;;16.70;63.80;;;;;;5031742;28;20426;-75
2022/06/02 07:21:51;;;;;;;17.70;15.77;;;16.90;62.50;;;;;;5001225;28;20050;-74
2022/06/02 07:24:41;;;;;;;17.48;15.68;;;16.50;64.30;;;;;;4994169;28;20398;-74
2022/06/02 07:27:20;;;;;;;18.98;16.98;;;16.60;63.70;;;;;;5003212;28;20040;-73
2022/06/02 07:30:17;;;;;;;18.20;16.42;;;16.60;62.60;;;;;;5015361;28;20038;-75
2022/06/02 07:32:53;;;;;;;19.58;17.45;;;16.50;63.50;;;;;;5001636;28;20381;-75
2022/06/02 07:35:43;;;;;;;23.13;20.67;;;16.10;65.00;;;;;;5001806;28;20050;-75
2022/06/02 07:38:25;;;;;;;21.35;19.20;;;16.40;64.20;;;;;;5008583;28;20128;-74
2022/06/02 07:41:08;;;;;;;22.10;19.90;;;16.60;64.30;;;;;;4999248;28;20042;-74
2022/06/02 07:44:10;;;;;;;20.20;18.08;;;17.10;63.70;;;;;;4993901;28;20430;-74
2022/06/02 07:46:47;;;;;;;19.63;17.55;;;17.60;60.40;;;;;;5010980;28;20071;-75
2022/06/02 07:49:47;;;;;;;17.13;15.32;;;17.60;59.70;;;;;;5002514;28;20080;-73
2022/06/02 07:52:37;;;;;;;18.88;16.88;;;18.00;58.10;;;;;;5001323;28;20045;-74
2022/06/02 07:55:22;;;;;;;14.32;12.57;;;18.20;57.20;;;;;;4996737;28;20076;-74
2022/06/02 07:58:21;;;;;;;17.50;15.70;;;18.30;57.40;;;;;;5002465;28;20129;-75
2022/06/02 08:00:54;;;;;;;16.75;14.93;;;18.90;55.80;;;;;;4999732;28;20076;-75
2022/06/02 08:03:47;;;;;;;18.33;16.63;;;18.80;53.10;;;;;;5001160;28;20128;-73
2022/06/02 08:06:17;;;;;;;14.25;12.75;;;18.60;54.40;;;;;;5002337;28;20148;-74
2022/06/02 08:09:06;;;;;;;17.25;15.45;;;18.80;55.90;;;;;;5000526;28;20049;-73
2022/06/02 08:11:44;;;;;;;16.90;13.45;;;19.20;54.50;;;;;;5004556;28;20033;-73
2022/06/02 08:14:17;;;;;;;17.08;15.13;;;19.50;53.20;;;;;;4996063;28;20717;-75
2022/06/02 08:16:53;;;;;;;16.57;14.97;;;19.50;52.00;;;;;;5001733;28;20084;-74
2022/06/02 08:19:24;;;;;;;17.38;15.23;;;19.70;52.60;;;;;;4999048;28;20293;-75
2022/06/02 08:22:00;;;;;;;16.15;14.52;;;20.00;51.20;;;;;;4996510;28;20125;-75
2022/06/02 08:24:47;;;;;;;17.98;16.17;;;20.20;49.90;;;;;;4998668;28;20034;-75
2022/06/02 08:27:34;;;;;;;18.70;15.90;;;19.50;51.30;;;;;;4994158;28;20053;-75
2022/06/02 08:30:16;;;;;;;18.13;16.15;;;19.10;54.10;;;;;;5001997;28;20139;-75
2022/06/02 08:32:56;;;;;;;20.67;18.48;;;19.60;53.20;;;;;;5000468;28;20473;-75
2022/06/02 08:35:47;;;;;;;21.00;17.95;;;19.50;52.20;;;;;;5002048;28;20045;-77
2022/06/02 08:38:26;;;;;;;18.23;16.33;;;18.70;54.40;;;;;;5001009;28;20212;-75
2022/06/02 08:41:28;;;;;;;19.85;17.85;;;18.70;55.30;;;;;;4999014;28;20391;-74
2022/06/02 08:43:58;;;;;;;20.95;17.83;;;19.00;53.40;;;;;;5001493;28;20042;-75
2022/06/02 08:46:49;;;;;;;18.42;15.25;;;19.20;53.10;;;;;;4998203;28;20053;-75
2022/06/02 08:49:34;;;;;;;17.55;15.38;;;19.20;52.70;;;;;;4999545;28;20038;-74
2022/06/02 08:52:41;;;;;;;20.10;17.90;;;19.50;51.90;;;;;;5003297;28;20075;-73
2022/06/02 08:55:25;;;;;;;18.92;16.92;;;19.70;51.40;;;;;;5011634;28;20044;-76
2022/06/02 08:58:22;;;;;;;18.85;15.70;;;19.90;51.00;;;;;;5004104;28;20469;-74
2022/06/02 09:01:09;;;;;;;17.75;15.70;;;19.70;51.20;;;;;;5006526;28;20061;-74
2022/06/02 09:03:59;;;;;;;17.98;14.93;;;19.90;51.50;;;;;;4997702;28;20053;-75
2022/06/02 09:06:39;;;;;;;17.58;14.98;;;19.40;51.70;;;;;;4995526;28;20064;-77
2022/06/02 09:09:14;;;;;;;14.95;13.32;;;19.90;50.00;;;;;;5012534;28;20416;-76
2022/06/02 09:11:42;;;;;;;18.52;16.15;;;20.40;49.70;;;;;;4999515;28;20084;-75
2022/06/02 09:14:30;;;;;;;17.08;15.32;;;19.70;49.40;;;;;;4993078;28;20046;-74
2022/06/02 09:16:58;;;;;;;19.55;16.98;;;19.40;51.40;;;;;;4998759;28;20525;-74
2022/06/02 09:19:47;;;;;;;17.08;15.38;;;19.60;50.40;;;;;;4995369;28;20116;-75
2022/06/02 09:22:39;;;;;;;12.45;11.15;;;20.10;49.20;;;;;;5000502;28;20532;-74
2022/06/02 09:25:37;;;;;;;12.40;11.10;;;20.20;48.10;;;;;;4997750;28;20137;-77
2022/06/02 09:28:22;;;;;;;13.60;11.60;;;20.60;47.90;;;;;;5000653;28;20500;-78
2022/06/02 09:31:09;;;;;;;19.33;13.15;;;20.60;47.50;;;;;;4992735;28;20497;-75
2022/06/02 09:34:00;;;;;;;14.18;12.30;;;20.40;49.10;;;;;;4992272;28;20061;-75
2022/06/02 09:36:50;;;;;;;16.13;13.63;;;20.50;47.80;;;;;;5004521;28;20042;-75
2022/06/02 09:39:52;;;;;;;28.05;16.35;;;20.20;47.50;;;;;;4993165;28;20045;-76
2022/06/02 09:43:06;;;;;;;24.55;16.65;;;20.30;49.30;;;;;;5005205;28;20030;-74
2022/06/02 09:45:52;;;;;;;16.80;14.52;;;19.60;50.50;;;;;;4997104;28;20047;-75
2022/06/02 09:48:39;;;;;;;17.45;15.57;;;19.20;50.70;;;;;;4997139;28;20497;-75
2022/06/02 09:51:08;;;;;;;13.93;11.00;;;19.00;51.40;;;;;;5010267;28;20045;-73
2022/06/02 09:54:06;;;;;;;13.80;12.27;;;18.90;50.00;;;;;;5001872;28;20502;-76
2022/06/02 09:56:31;;;;;;;14.18;12.07;;;19.80;49.00;;;;;;4983492;28;20053;-75
2022/06/02 09:59:10;;;;;;;13.65;11.90;;;20.30;47.30;;;;;;4992339;28;20752;-75
2022/06/02 10:02:04;;;;;;;14.45;12.90;;;20.60;46.10;;;;;;4993633;28;20151;-75
2022/06/02 10:04:57;;;;;;;14.23;12.38;;;20.20;48.70;;;;;;4994750;28;20037;-75
2022/06/02 10:07:36;;;;;;;12.57;11.27;;;20.10;48.00;;;;;;4999778;28;20121;-75
2022/06/02 10:10:15;;;;;;;12.02;10.80;;;20.30;48.50;;;;;;4994918;28;20071;-74
2022/06/02 10:12:55;;;;;;;12.32;10.73;;;20.70;47.10;;;;;;5004726;28;20133;-75
2022/06/02 10:15:40;;;;;;;13.10;11.77;;;20.60;47.10;;;;;;5003799;28;20455;-78
2022/06/02 10:18:09;;;;;;;11.57;9.65;;;20.80;45.50;;;;;;5002995;28;20037;-74
2022/06/02 10:20:53;;;;;;;10.77;9.65;;;20.60;48.10;;;;;;5010745;28;20046;-75
2022/06/02 10:23:34;;;;;;;10.95;9.45;;;20.20;48.50;;;;;;5006826;28;20053;-75
2022/06/02 10:26:00;;;;;;;10.20;8.45;;;20.40;47.90;;;;;;4997052;28;20065;-77
2022/06/02 10:29:08;;;;;;;10.05;8.02;;;20.00;46.40;;;;;;5005272;28;20513;-75
2022/06/02 10:32:15;;;;;;;10.27;8.35;;;20.40;47.30;;;;;;4977904;28;20054;-74
2022/06/02 10:34:56;;;;;;;12.90;10.20;;;20.80;47.30;;;;;;4995696;28;20082;-74
2022/06/02 10:37:56;;;;;;;11.00;8.73;;;20.30;46.70;;;;;;4995466;28;20045;-75
2022/06/02 10:40:22;;;;;;;12.15;8.77;;;19.70;49.80;;;;;;4994249;28;20070;-75
2022/06/02 10:43:23;;;;;;;10.20;7.85;;;20.60;47.90;;;;;;4993544;28;20129;-76
2022/06/02 10:45:52;;;;;;;12.90;10.73;;;21.30;45.90;;;;;;4967464;28;20047;-75
2022/06/02 10:48:48;;;;;;;14.05;9.60;;;21.10;46.30;;;;;;4996683;28;20053;-74
2022/06/02 10:51:51;;;;;;;11.20;8.85;;;21.20;45.30;;;;;;5001636;28;20038;-74
2022/06/02 10:54:59;;;;;;;12.18;9.27;;;21.40;44.40;;;;;;4993252;28;20091;-74
2022/06/02 10:57:55;;;;;;;10.68;8.00;;;21.70;44.00;;;;;;4993317;28;20069;-74
2022/06/02 11:00:30;;;;;;;10.68;9.57;;;22.30;43.00;;;;;;5024517;28;20426;-74
2022/06/02 11:03:13;;;;;;;12.05;9.68;;;22.30;42.20;;;;;;4995150;28;20388;-75
2022/06/02 11:06:18;;;;;;;13.13;8.82;;;21.90;43.50;;;;;;4992168;28;20050;-75
2022/06/02 11:08:59;;;;;;;12.68;8.85;;;21.40;43.60;;;;;;4974757;28;20664;-73
2022/06/02 11:12:07;;;;;;;13.55;10.48;;;21.20;45.10;;;;;;4993529;28;20049;-75
2022/06/02 11:15:05;;;;;;;13.43;9.95;;;20.10;46.10;;;;;;4992306;28;20037;-74
2022/06/02 11:17:49;;;;;;;10.45;8.32;;;20.30;47.60;;;;;;4996618;28;20062;-74
2022/06/02 11:20:39;;;;;;;10.05;8.05;;;20.90;45.30;;;;;;4991250;28;20125;-74
2022/06/02 11:23:33;;;;;;;9.48;6.38;;;21.10;44.40;;;;;;4991331;28;20042;-74
2022/06/02 11:26:05;;;;;;;9.15;7.03;;;21.50;43.80;;;;;;4994230;28;20430;-74
2022/06/02 11:28:42;;;;;;;8.07;5.57;;;21.90;42.70;;;;;;4992849;28;20044;-74
2022/06/02 11:31:37;;;;;;;8.27;5.63;;;22.10;42.40;;;;;;4993678;28;20133;-75
2022/06/02 11:34:17;;;;;;;7.85;6.13;;;22.40;42.40;;;;;;4991774;28;20117;-73
2022/06/02 11:36:57;;;;;;;7.22;5.80;;;22.40;41.30;;;;;;4993740;28;20548;-73
2022/06/02 11:39:28;;;;;;;8.60;7.57;;;22.50;40.90;;;;;;4996352;28;20049;-75
2022/06/02 11:42:00;;;;;;;10.25;8.85;;;22.40;39.20;;;;;;5003829;28;20157;-74
2022/06/02 11:44:29;;;;;;;10.40;8.13;;;21.70;40.90;;;;;;4991359;28;20038;-77
2022/06/02 11:47:18;;;;;;;8.95;7.95;;;21.50;44.10;;;;;;5000864;28;20045;-76
2022/06/02 11:49:53;;;;;;;8.95;6.93;;;21.80;43.10;;;;;;4998569;28;20503;-76
2022/06/02 11:52:30;;;;;;;11.45;7.22;;;22.20;42.80;;;;;;4994921;28;20168;-76
2022/06/02 11:55:09;;;;;;;8.52;5.70;;;22.30;41.20;;;;;;4997239;28;20058;-78
2022/06/02 11:57:48;;;;;;;9.93;6.97;;;22.60;40.60;;;;;;5001434;28;20545;-74
2022/06/02 12:00:49;;;;;;;10.50;6.35;;;22.60;40.90;;;;;;5000016;28;20059;-78
2022/06/02 12:03:50;;;;;;;10.27;6.90;;;22.50;41.00;;;;;;5001539;28;20046;-81
2022/06/02 12:06:31;;;;;;;8.27;6.28;;;22.80;40.40;;;;;;5005570;28;20037;-74
2022/06/02 12:09:33;;;;;;;9.98;6.82;;;23.00;40.60;;;;;;5000228;28;20038;-74
2022/06/02 12:12:43;;;;;;;11.68;9.52;;;22.60;40.50;;;;;;4999532;28;20025;-74
2022/06/02 12:15:22;;;;;;;10.02;8.30;;;22.60;40.80;;;;;;4992520;28;20042;-76
2022/06/02 12:18:09;;;;;;;8.75;7.22;;;22.90;40.90;;;;;;4993505;28;20128;-75
2022/06/02 12:20:38;;;;;;;12.13;7.53;;;23.20;41.00;;;;;;5001124;28;20444;-74
2022/06/02 12:23:28;;;;;;;10.45;8.88;;;22.20;41.20;;;;;;4997218;28;20046;-75
2022/06/02 12:25:55;;;;;;;8.52;7.20;;;22.10;42.90;;;;;;5006494;28;20056;-74
2022/06/02 12:28:39;;;;;;;11.07;8.75;;;22.20;43.00;;;;;;4999406;28;20054;-74
2022/06/02 12:31:23;;;;;;;9.93;7.55;;;22.80;41.10;;;;;;4998411;28;20038;-74
2022/06/02 12:34:26;;;;;;;10.68;6.20;;;23.00;41.20;;;;;;4999161;28;20556;-74
2022/06/02 12:37:10;;;;;;;7.22;5.75;;;23.80;40.60;;;;;;4999534;28;20034;-75
2022/06/02 12:39:38;;;;;;;8.52;6.88;;;23.60;39.20;;;;;;4993875;28;20042;-75
2022/06/02 12:43:00;;;;;;;10.57;8.27;;;23.60;38.20;;;;;;4999625;28;20034;-75
2022/06/02 12:45:46;;;;;;;9.13;6.45;;;22.80;39.70;;;;;;4994607;28;20029;-75
2022/06/02 12:48:34;;;;;;;10.20;7.47;;;22.70;41.60;;;;;;4996778;28;20449;-74
2022/06/02 12:51:25;;;;;;;8.57;6.78;;;22.90;39.40;;;;;;5003283;28;20143;-74
2022/06/02 12:54:17;;;;;;;8.90;6.95;;;22.60;40.60;;;;;;4992257;28;20454;-73
2022/06/02 12:57:20;;;;;;;8.70;5.80;;;22.00;42.70;;;;;;5005446;28;20089;-74
2022/06/02 13:00:24;;;;;;;8.43;5.53;;;22.50;40.70;;;;;;5000822;28;20121;-75
2022/06/02 13:03:11;;;;;;;11.73;6.05;;;22.60;40.90;;;;;;4990518;28;20105;-75
2022/06/02 13:06:13;;;;;;;7.93;4.80;;;23.10;39.40;;;;;;5003531;28;20060;-74
2022/06/02 13:09:10;;;;;;;8.10;4.82;;;23.30;38.40;;;;;;5005780;28;20117;-75
2022/06/02 13:11:58;;;;;;;7.65;5.60;;;23.30;38.20;;;;;;4999813;28;20533;-77
2022/06/02 13:14:57;;;;;;;7.85;5.43;;;22.90;40.30;;;;;;4995837;28;20125;-74
2022/06/02 13:17:47;;;;;;;9.43;6.85;;;23.10;40.50;;;;;;4998331;28;20491;-73
2022/06/02 13:20:45;;;;;;;7.35;4.70;;;23.10;39.20;;;;;;5001324;28;20117;-76
2022/06/02 13:23:34;;;;;;;8.77;4.35;;;23.10;40.10;;;;;;4992919;28;20045;-74
2022/06/02 13:26:23;;;;;;;6.68;4.10;;;23.00;39.80;;;;;;5000591;28;20081;-74
2022/06/02 13:28:49;;;;;;;7.35;4.50;;;23.20;38.60;;;;;;4990127;28;20140;-74
2022/06/02 13:31:33;;;;;;;7.80;4.65;;;23.20;38.20;;;;;;5001418;28;20129;-74
2022/06/02 13:34:40;;;;;;;11.00;4.20;;;23.30;39.30;;;;;;5014839;28;20026;-74
2022/06/02 13:37:40;;;;;;;8.30;4.40;;;23.60;38.00;;;;;;4980332;28;20323;-76
2022/06/02 13:40:21;;;;;;;8.93;4.80;;;23.30;38.20;;;;;;5002536;28;20064;-75
2022/06/02 13:43:18;;;;;;;5.10;3.78;;;23.30;39.40;;;;;;5005850;28;20095;-73
2022/06/02 13:46:05;;;;;;;6.15;3.75;;;23.40;38.30;;;;;;5005800;28;20107;-73
2022/06/02 13:49:06;;;;;;;6.78;4.88;;;22.80;39.40;;;;;;5002102;28;20038;-76
2022/06/02 13:51:50;;;;;;;5.15;3.50;;;22.40;38.90;;;;;;5000860;28;20030;-75
2022/06/02 13:57:31;;;;;;;5.80;3.38;;;23.10;38.90;;;;;;5001572;28;20391;-74
2022/06/02 14:00:07;;;;;;;7.72;3.75;;;23.30;39.00;;;;;;5005880;28;20548;-75
2022/06/02 14:02:47;;;;;;;6.95;4.20;;;23.50;38.40;;;;;;5008017;28;20038;-75
2022/06/02 14:05:28;;;;;;;5.63;3.83;;;23.30;38.80;;;;;;5004109;28;20500;-75
2022/06/02 14:08:32;;;;;;;5.10;3.28;;;23.70;38.80;;;;;;4995676;28;20042;-74
2022/06/02 14:11:03;;;;;;;6.68;3.58;;;23.30;37.70;;;;;;4993619;28;20333;-74
2022/06/02 14:14:07;;;;;;;6.35;3.53;;;23.50;38.40;;;;;;5000088;28;20034;-74
2022/06/02 14:17:04;;;;;;;7.18;3.47;;;23.50;37.80;;;;;;4959232;28;20046;-73
2022/06/02 14:19:47;;;;;;;5.75;3.03;;;23.30;37.70;;;;;;4965497;28;20093;-74